Time;durP1;ratioP1;P1;durP2;ratioP2;P2;SDS_P1;SDS_P2;PMS_P1;PMS_P2;Temp;Humidity;BMP_temperature;BMP_pressure;BME280_temperature;BME280_humidity;BME280_pressure;Samples;Min_cycle;Max_cycle;Signal;HPM_P1;HPM_P2
2023/09/15 00:00:26;;;;;;;3.97;2.50;;;;;;;13.48;83.45;101552.34;5096198;28;20216;-74
2023/09/15 00:02:56;;;;;;;5.53;2.50;;;;;;;13.49;82.58;101553.19;5095919;28;20339;-74
2023/09/15 00:05:28;;;;;;;3.37;2.40;;;;;;;13.45;82.21;101551.81;5096041;28;20201;-74
2023/09/15 00:07:57;;;;;;;4.07;2.20;;;;;;;13.40;82.85;101552.28;5096249;28;20659;-74
2023/09/15 00:10:27;;;;;;;6.73;2.93;;;;;;;13.39;81.34;101547.91;5096138;28;20209;-74
2023/09/15 00:12:56;;;;;;;7.83;2.40;;;;;;;13.49;81.55;101542.44;5095635;28;20225;-74
2023/09/15 00:15:26;;;;;;;4.70;2.50;;;;;;;13.43;80.30;101541.19;5095179;28;20659;-74
2023/09/15 00:17:55;;;;;;;4.63;2.30;;;;;;;13.40;80.53;101546.91;5095987;28;20232;-74
2023/09/15 00:20:25;;;;;;;4.63;2.23;;;;;;;13.45;80.73;101546.44;5096388;28;20205;-74
2023/09/15 00:22:55;;;;;;;5.53;2.40;;;;;;;13.38;80.91;101548.91;5096272;28;20320;-74
2023/09/15 00:25:26;;;;;;;3.43;2.43;;;;;;;13.40;80.64;101541.53;5095952;28;20197;-74
2023/09/15 00:27:57;;;;;;;4.30;2.47;;;;;;;13.33;80.76;101537.78;5096182;28;20301;-74
2023/09/15 00:30:28;;;;;;;4.70;2.27;;;;;;;13.34;80.43;101536.78;5095131;28;20556;-74
2023/09/15 00:32:57;;;;;;;5.10;2.47;;;;;;;13.24;79.73;101541.44;5094662;28;20655;-74
2023/09/15 00:35:28;;;;;;;5.23;2.53;;;;;;;13.22;80.55;101547.97;5094888;28;20204;-74
2023/09/15 00:37:57;;;;;;;3.47;2.40;;;;;;;13.12;80.66;101548.06;5095681;28;20615;-74
2023/09/15 00:40:25;;;;;;;4.27;2.70;;;;;;;13.14;80.80;101538.84;5095326;28;20256;-74
2023/09/15 00:42:54;;;;;;;4.43;2.50;;;;;;;13.22;80.44;101539.91;5096889;28;20248;-73
2023/09/15 00:45:23;;;;;;;4.70;2.60;;;;;;;13.22;79.72;101548.78;5095701;28;20209;-73
2023/09/15 00:47:55;;;;;;;5.37;2.50;;;;;;;13.24;80.27;101549.50;5095308;28;20200;-74
2023/09/15 00:50:27;;;;;;;3.70;2.40;;;;;;;13.16;79.36;101544.06;5095431;28;20221;-74
2023/09/15 00:52:58;;;;;;;3.80;2.40;;;;;;;13.18;80.03;101542.06;5094478;28;20321;-74
2023/09/15 00:55:29;;;;;;;7.67;2.60;;;;;;;13.14;80.50;101538.84;5094756;28;20221;-74
2023/09/15 00:57:59;;;;;;;5.00;2.80;;;;;;;13.06;79.96;101533.38;5094615;28;20642;-75
2023/09/15 01:00:28;;;;;;;6.23;2.63;;;;;;;13.08;79.48;101535.91;5094385;28;20287;-75
2023/09/15 01:02:59;;;;;;;5.03;2.73;;;;;;;13.05;79.41;101534.38;5094430;28;20247;-75
2023/09/15 01:05:29;;;;;;;4.90;2.57;;;;;;;13.11;79.14;101531.09;5094060;28;20711;-75
2023/09/15 01:07:57;;;;;;;5.30;2.60;;;;;;;13.06;79.29;101532.53;5094169;28;20290;-75
2023/09/15 01:10:26;;;;;;;3.03;2.50;;;;;;;13.13;79.71;101533.63;5094027;28;20697;-75
2023/09/15 01:12:55;;;;;;;5.07;2.80;;;;;;;13.01;78.92;101532.16;5094437;28;20264;-75
2023/09/15 01:15:31;;;;;;;5.83;2.70;;;;;;;12.94;78.92;101528.41;5094503;28;20204;-75
2023/09/15 01:18:08;;;;;;;5.53;2.37;;;;;;;13.02;79.65;101532.00;5093816;28;20283;-75
2023/09/15 01:20:57;;;;;;;4.07;2.57;;;;;;;12.88;79.45;101523.63;5094439;28;20224;-75
2023/09/15 01:24:09;;;;;;;5.93;2.57;;;;;;;12.88;80.03;101523.63;5094105;28;20259;-75
2023/09/15 01:26:59;;;;;;;5.37;2.60;;;;;;;12.87;80.18;101522.81;5073731;28;20242;-74
2023/09/15 01:29:40;;;;;;;3.43;2.43;;;;;;;12.91;79.84;101529.53;5094223;28;20268;-74
2023/09/15 01:32:09;;;;;;;3.30;2.40;;;;;;;12.71;nan;101533.41;5094206;28;20184;-74
2023/09/15 01:34:38;;;;;;;6.03;2.50;;;;;;;12.57;80.43;101537.50;5093544;28;20219;-74
2023/09/15 01:37:07;;;;;;;3.07;2.20;;;;;;;12.65;79.85;101529.50;5093963;28;20293;-74
2023/09/15 01:39:35;;;;;;;4.83;2.60;;;;;;;12.71;80.85;101523.53;5093914;28;20212;-74
2023/09/15 01:42:04;;;;;;;3.80;2.30;;;;;;;12.67;79.01;101516.75;5093956;28;20240;-74
2023/09/15 01:44:33;;;;;;;3.00;2.50;;;;;;;12.66;80.07;101520.47;5093616;28;20315;-74
2023/09/15 01:47:04;;;;;;;3.80;2.70;;;;;;;12.66;80.04;101519.63;5093823;28;20244;-74
2023/09/15 01:49:33;;;;;;;3.60;2.60;;;;;;;12.62;79.14;101527.13;5093570;28;20270;-74
2023/09/15 01:52:04;;;;;;;2.87;2.17;;;;;;;12.66;79.19;101525.84;5093860;28;20244;-74
2023/09/15 01:54:32;;;;;;;4.27;2.30;;;;;;;12.60;80.02;101526.44;5093735;28;20266;-74
2023/09/15 01:57:01;;;;;;;4.87;2.60;;;;;;;12.52;79.50;101523.69;5093789;28;20205;-74
2023/09/15 01:59:30;;;;;;;4.80;2.43;;;;;;;12.37;80.00;101519.00;5093756;28;20307;-74
2023/09/15 02:01:58;;;;;;;4.53;3.00;;;;;;;12.30;81.05;101523.28;5093789;28;20201;-74
2023/09/15 02:04:28;;;;;;;4.97;2.40;;;;;;;12.25;81.44;101521.06;5094162;28;20606;-74
2023/09/15 02:06:57;;;;;;;3.90;2.20;;;;;;;12.12;81.42;101516.06;5097512;28;20231;-74
2023/09/15 02:09:25;;;;;;;5.97;2.73;;;;;;;12.06;82.42;101516.66;5097434;28;20204;-74
2023/09/15 02:11:54;;;;;;;4.20;2.70;;;;;;;11.88;81.86;101514.97;5097548;28;20200;-74
2023/09/15 02:14:23;;;;;;;4.60;2.70;;;;;;;12.02;82.51;101515.28;5097613;28;20312;-74
2023/09/15 02:16:51;;;;;;;4.07;2.70;;;;;;;12.05;81.64;101514.16;5097117;28;20211;-74
2023/09/15 02:19:20;;;;;;;7.17;3.03;;;;;;;12.13;81.70;101517.75;5097220;28;20212;-74
2023/09/15 02:21:50;;;;;;;4.07;2.53;;;;;;;12.10;81.28;101514.53;5096922;28;20610;-74
2023/09/15 02:24:18;;;;;;;4.10;2.30;;;;;;;12.26;81.57;101517.38;5096727;28;20319;-74
2023/09/15 02:26:47;;;;;;;4.87;2.50;;;;;;;12.11;81.48;101513.53;5097101;28;20291;-74
2023/09/15 02:29:15;;;;;;;7.23;2.47;;;;;;;12.10;80.56;101512.69;5096733;28;20247;-74
2023/09/15 02:31:44;;;;;;;4.87;2.70;;;;;;;12.18;80.82;101518.16;5096994;28;20244;-74
2023/09/15 02:34:12;;;;;;;6.23;2.73;;;;;;;12.25;80.06;101510.34;5096691;28;20231;-74
2023/09/15 02:36:41;;;;;;;4.47;2.60;;;;;;;12.15;80.32;101505.03;5097196;28;20205;-74
2023/09/15 02:39:11;;;;;;;6.97;2.87;;;;;;;12.25;80.66;101510.34;5096781;28;20208;-74
2023/09/15 02:41:39;;;;;;;4.77;2.57;;;;;;;12.28;79.46;101509.19;5097160;28;20312;-74
2023/09/15 02:44:09;;;;;;;4.13;2.63;;;;;;;12.26;80.42;101511.19;5097061;28;20228;-75
2023/09/15 02:46:38;;;;;;;6.03;2.80;;;;;;;12.32;81.03;101516.78;5097442;28;20626;-75
2023/09/15 02:49:07;;;;;;;3.97;2.53;;;;;;;12.19;80.11;101510.97;5097347;28;20274;-73
2023/09/15 02:51:37;;;;;;;3.43;2.50;;;;;;;12.10;80.09;101514.53;5096945;28;20653;-74
2023/09/15 02:54:06;;;;;;;4.83;2.90;;;;;;;11.99;81.92;101520.09;5096782;28;20227;-74
2023/09/15 02:56:36;;;;;;;7.03;3.07;;;;;;;11.96;82.97;101517.72;5096794;28;20712;-74
2023/09/15 02:59:05;;;;;;;4.90;2.63;;;;;;;12.00;82.01;101511.06;5097488;28;20287;-74
2023/09/15 03:01:36;;;;;;;5.60;3.13;;;;;;;11.95;81.96;101516.88;5096738;28;20211;-74
2023/09/15 03:04:05;;;;;;;5.40;3.10;;;;;;;12.02;82.38;101509.09;5096209;28;20234;-73
2023/09/15 03:06:33;;;;;;;5.97;2.80;;;;;;;12.14;82.44;101508.72;5095712;28;20258;-74
2023/09/15 03:09:03;;;;;;;3.43;2.60;;;;;;;12.17;82.29;101513.78;5095580;28;20295;-74
2023/09/15 03:11:32;;;;;;;3.33;2.77;;;;;;;12.15;81.69;101506.88;5095556;28;20201;-74
2023/09/15 03:14:02;;;;;;;5.73;3.00;;;;;;;12.01;82.44;101497.50;5095131;28;20654;-74
2023/09/15 03:16:30;;;;;;;5.00;3.07;;;;;;;11.96;81.58;101499.78;5094665;28;20626;-74
2023/09/15 03:18:59;;;;;;;4.03;2.83;;;;;;;12.04;81.84;101496.34;5095078;28;20617;-74
2023/09/15 03:21:28;;;;;;;4.07;2.80;;;;;;;12.02;82.27;101503.72;5095598;28;20291;-74
2023/09/15 03:23:56;;;;;;;3.30;2.73;;;;;;;11.92;82.42;101495.72;5095130;28;20235;-74
2023/09/15 03:26:25;;;;;;;5.93;3.23;;;;;;;12.00;82.07;101497.66;5095215;28;20219;-74
2023/09/15 03:28:53;;;;;;;4.20;2.60;;;;;;;12.04;82.45;101496.34;5095192;28;20208;-74
2023/09/15 03:31:23;;;;;;;4.47;2.80;;;;;;;12.01;82.16;101488.59;5095192;28;20208;-74
2023/09/15 03:33:51;;;;;;;4.20;3.00;;;;;;;12.01;82.18;101491.28;5094693;28;20319;-74
2023/09/15 03:36:21;;;;;;;4.57;2.97;;;;;;;11.98;81.79;101486.22;5095094;28;20236;-74
2023/09/15 03:38:49;;;;;;;3.90;2.70;;;;;;;11.95;80.79;101491.91;5094985;28;20205;-74
2023/09/15 03:41:18;;;;;;;4.53;2.80;;;;;;;11.84;82.27;101489.41;5094953;28;20258;-74
2023/09/15 03:43:46;;;;;;;4.30;2.90;;;;;;;11.83;80.78;101482.34;5094427;28;20758;-74
2023/09/15 03:46:15;;;;;;;4.60;2.60;;;;;;;11.85;81.98;101489.25;5094531;28;20757;-74
2023/09/15 03:48:45;;;;;;;3.63;2.77;;;;;;;11.84;82.39;101486.75;5094847;28;20212;-74
2023/09/15 03:51:14;;;;;;;3.10;2.73;;;;;;;11.84;82.06;101490.28;5094850;28;20639;-73
2023/09/15 03:53:42;;;;;;;4.63;2.83;;;;;;;11.69;81.98;101484.53;5095174;28;20308;-73
2023/09/15 03:56:11;;;;;;;3.77;2.90;;;;;;;11.73;81.59;101481.56;5094855;28;20229;-74
2023/09/15 03:58:39;;;;;;;4.03;2.97;;;;;;;11.78;81.55;101468.56;5094463;28;20209;-74
2023/09/15 04:01:09;;;;;;;4.50;2.87;;;;;;;11.76;80.97;101473.22;5094668;28;20209;-74
2023/09/15 04:03:38;;;;;;;3.67;2.77;;;;;;;11.66;80.80;101482.16;5094508;28;20224;-74
2023/09/15 04:06:08;;;;;;;5.20;2.77;;;;;;;11.56;81.20;101473.31;5094228;28;20584;-73
2023/09/15 04:08:36;;;;;;;4.03;2.97;;;;;;;11.56;81.22;101475.97;5094431;28;20200;-74
2023/09/15 04:11:05;;;;;;;3.17;2.60;;;;;;;11.69;81.70;101476.47;5094078;28;20255;-73
2023/09/15 04:13:33;;;;;;;3.80;2.90;;;;;;;11.61;80.32;101478.19;5094297;28;20264;-73
2023/09/15 04:16:04;;;;;;;3.50;2.50;;;;;;;11.45;81.13;101478.84;5093984;28;20655;-73
2023/09/15 04:18:32;;;;;;;3.13;2.83;;;;;;;11.41;81.21;101480.13;5093858;28;20735;-73
2023/09/15 04:21:02;;;;;;;3.47;2.80;;;;;;;11.40;81.23;101482.97;5093755;28;20623;-73
2023/09/15 04:23:32;;;;;;;3.87;2.43;;;;;;;11.31;81.10;101468.59;5093443;28;20793;-73
2023/09/15 04:26:00;;;;;;;3.97;2.70;;;;;;;11.28;81.37;101478.78;5093778;28;20300;-74
2023/09/15 04:28:28;;;;;;;5.10;3.10;;;;;;;11.20;82.41;101468.78;5093219;28;20738;-74
2023/09/15 04:30:57;;;;;;;4.97;2.53;;;;;;;11.23;80.82;101468.53;5094057;28;20204;-73
2023/09/15 04:33:26;;;;;;;4.50;2.80;;;;;;;11.15;82.02;101468.41;5093870;28;20298;-74
2023/09/15 04:35:54;;;;;;;3.60;2.80;;;;;;;11.18;80.93;101462.75;5095154;28;20590;-74
2023/09/15 04:38:23;;;;;;;3.73;2.83;;;;;;;11.26;81.85;101473.59;5093842;28;20303;-74
2023/09/15 04:40:54;;;;;;;4.07;3.00;;;;;;;11.28;81.90;101468.91;5093796;28;20250;-74
2023/09/15 04:43:22;;;;;;;3.73;2.80;;;;;;;11.35;81.54;101471.84;5093465;28;20667;-74
2023/09/15 04:45:51;;;;;;;3.57;2.77;;;;;;;11.18;81.33;101470.78;5093687;28;20228;-74
2023/09/15 04:48:19;;;;;;;3.23;2.80;;;;;;;11.09;82.31;101471.66;5093817;28;20243;-74
2023/09/15 04:50:48;;;;;;;4.77;2.97;;;;;;;11.08;81.45;101470.81;5093711;28;20283;-74
2023/09/15 04:53:16;;;;;;;4.80;3.20;;;;;;;10.99;82.22;101470.84;5093793;28;20229;-73
2023/09/15 04:55:45;;;;;;;7.30;3.53;;;;;;;10.84;83.31;101472.28;5093400;28;20205;-73
2023/09/15 04:58:15;;;;;;;5.07;3.13;;;;;;;10.84;82.07;101474.97;5093970;28;20200;-73
2023/09/15 05:00:43;;;;;;;4.47;2.97;;;;;;;10.80;82.45;101476.22;5093674;28;20205;-73
2023/09/15 05:03:12;;;;;;;6.03;2.90;;;;;;;10.81;82.96;101478.78;5093253;28;20720;-73
2023/09/15 05:05:43;;;;;;;5.00;3.27;;;;;;;10.78;83.12;101478.22;5093546;28;20315;-73
2023/09/15 05:08:11;;;;;;;5.57;3.13;;;;;;;10.75;84.79;101486.56;5093586;28;20258;-73
2023/09/15 05:10:41;;;;;;;5.33;2.80;;;;;;;10.75;84.43;101478.50;5093540;28;20205;-73
2023/09/15 05:13:10;;;;;;;3.73;2.80;;;;;;;10.85;83.45;101473.97;5093690;28;20224;-73
2023/09/15 05:15:40;;;;;;;4.43;2.83;;;;;;;10.80;83.36;101478.91;5094146;28;20212;-74
2023/09/15 05:18:09;;;;;;;3.83;2.87;;;;;;;10.91;83.48;101473.41;5093522;28;20199;-74
2023/09/15 05:20:38;;;;;;;3.13;2.77;;;;;;;10.94;83.46;101479.31;5093450;28;20243;-74
2023/09/15 05:23:09;;;;;;;5.10;2.30;;;;;;;11.03;83.88;101474.91;5093368;28;20315;-73
2023/09/15 05:25:58;;;;;;;5.27;2.90;;;;;;;10.93;82.46;101461.53;5093409;28;20208;-74
2023/09/15 05:28:28;;;;;;;3.80;2.70;;;;;;;10.92;83.92;101464.38;5093395;28;20224;-74
2023/09/15 05:31:00;;;;;;;4.30;3.07;;;;;;;10.94;83.29;101473.09;5093237;28;20222;-74
2023/09/15 05:33:29;;;;;;;4.37;3.00;;;;;;;10.99;83.01;101478.88;5092907;28;20239;-74
2023/09/15 05:35:58;;;;;;;3.50;2.80;;;;;;;11.01;83.71;101474.22;5093268;28;20295;-74
2023/09/15 05:38:27;;;;;;;5.07;3.10;;;;;;;11.05;83.33;101473.78;5093852;28;20204;-74
2023/09/15 05:40:57;;;;;;;4.50;2.90;;;;;;;11.07;84.67;101470.94;5097340;28;20197;-74
2023/09/15 05:43:26;;;;;;;4.00;3.40;;;;;;;11.03;84.58;101472.22;5097201;28;20327;-74
2023/09/15 05:45:57;;;;;;;6.10;3.40;;;;;;;11.08;84.10;101469.97;5097166;28;20240;-74
2023/09/15 05:48:27;;;;;;;6.60;4.10;;;;;;;11.08;84.69;101478.00;5097210;28;20635;-74
2023/09/15 05:50:55;;;;;;;5.93;3.87;;;;;;;11.04;85.59;101480.13;5097114;28;20307;-74
2023/09/15 05:53:23;;;;;;;6.03;3.70;;;;;;;11.04;85.79;101485.50;5096995;28;20220;-74
2023/09/15 05:55:53;;;;;;;5.50;3.30;;;;;;;11.08;86.05;101478.00;5096986;28;20206;-74
2023/09/15 05:58:22;;;;;;;6.67;3.47;;;;;;;11.09;85.86;101480.56;5096984;28;20287;-74
2023/09/15 06:00:55;;;;;;;8.50;3.90;;;;;;;11.11;86.08;101486.59;5096958;28;20232;-74
2023/09/15 06:03:24;;;;;;;6.47;4.07;;;;;;;11.08;86.87;101484.22;5096842;28;20228;-74
2023/09/15 06:05:54;;;;;;;7.47;3.83;;;;;;;11.05;86.26;101481.84;5096773;28;20232;-74
2023/09/15 06:08:22;;;;;;;7.37;3.60;;;;;;;11.07;86.44;101484.34;5097058;28;20296;-74
2023/09/15 06:10:51;;;;;;;8.43;3.93;;;;;;;11.11;87.02;101477.72;5096437;28;20700;-74
2023/09/15 06:13:19;;;;;;;6.23;3.47;;;;;;;11.10;87.05;101484.06;5096310;28;20233;-74
2023/09/15 06:15:48;;;;;;;7.47;4.37;;;;;;;11.11;86.49;101481.25;5096597;28;20255;-74
2023/09/15 06:18:16;;;;;;;8.03;3.80;;;;;;;11.15;86.98;101479.13;5096592;28;20209;-74
2023/09/15 06:20:44;;;;;;;7.93;4.17;;;;;;;11.11;86.76;101477.72;5096196;28;20758;-74
2023/09/15 06:23:14;;;;;;;5.87;4.07;;;;;;;11.13;87.39;101473.03;5096411;28;20228;-74
2023/09/15 06:25:46;;;;;;;6.37;4.20;;;;;;;11.18;87.09;101476.13;5096112;28;20675;-74
2023/09/15 06:28:14;;;;;;;7.70;4.37;;;;;;;11.20;87.59;101468.78;5096489;28;20246;-74
2023/09/15 06:30:49;;;;;;;6.93;4.27;;;;;;;11.23;87.62;101476.56;5096081;28;20642;-74
2023/09/15 06:33:18;;;;;;;7.43;4.47;;;;;;;11.26;87.45;101481.63;5095889;28;20670;-74
2023/09/15 06:35:46;;;;;;;7.73;4.17;;;;;;;11.29;87.50;101477.78;5096276;28;20299;-74
2023/09/15 06:38:18;;;;;;;6.20;4.27;;;;;;;11.32;87.42;101481.03;5096228;28;20204;-74
2023/09/15 06:40:46;;;;;;;9.90;4.60;;;;;;;11.35;88.25;101483.41;5096216;28;20189;-74
2023/09/15 06:43:15;;;;;;;7.50;4.60;;;;;;;11.38;87.87;101483.13;5096088;28;20638;-74
2023/09/15 06:45:44;;;;;;;7.73;3.97;;;;;;;11.42;87.93;101484.50;5096005;28;20271;-74
2023/09/15 06:48:12;;;;;;;9.43;4.80;;;;;;;11.46;88.58;101485.91;5096256;28;20207;-74
2023/09/15 06:50:41;;;;;;;7.77;4.80;;;;;;;11.49;87.45;101488.28;5095146;28;20215;-74
2023/09/15 06:53:09;;;;;;;8.30;4.67;;;;;;;11.55;86.94;101494.88;5095798;28;20235;-74
2023/09/15 06:55:42;;;;;;;6.87;4.60;;;;;;;11.58;87.23;101489.22;5095871;28;20205;-74
2023/09/15 06:58:10;;;;;;;9.13;4.20;;;;;;;11.64;87.76;101485.97;5095849;28;20284;-74
2023/09/15 07:00:40;;;;;;;7.47;4.30;;;;;;;11.69;87.39;101489.03;5095801;28;20200;-74
2023/09/15 07:03:08;;;;;;;10.57;4.60;;;;;;;11.73;87.41;101482.41;5095651;28;20229;-74
2023/09/15 07:05:40;;;;;;;9.60;4.70;;;;;;;11.79;87.05;101475.59;5095283;28;20571;-74
2023/09/15 07:08:08;;;;;;;6.10;4.60;;;;;;;11.83;86.76;101477.00;5095603;28;20560;-74
2023/09/15 07:10:37;;;;;;;8.23;4.13;;;;;;;11.85;86.80;101464.28;5095603;28;20205;-74
2023/09/15 07:13:07;;;;;;;8.57;4.40;;;;;;;11.91;87.14;101469.03;5095463;28;20229;-74
2023/09/15 07:15:36;;;;;;;10.27;4.13;;;;;;;11.95;86.42;101467.75;5095474;28;20205;-74
2023/09/15 07:18:08;;;;;;;9.60;4.37;;;;;;;12.04;85.32;101465.00;5095490;28;20272;-74
2023/09/15 07:20:36;;;;;;;11.93;4.37;;;;;;;12.09;85.13;101468.03;5095630;28;20211;-74
2023/09/15 07:23:05;;;;;;;8.43;4.27;;;;;;;12.14;85.29;101478.34;5095140;28;20312;-75
2023/09/15 07:25:33;;;;;;;9.93;4.40;;;;;;;12.16;86.21;101479.00;5095000;28;20231;-75
2023/09/15 07:28:03;;;;;;;9.40;4.03;;;;;;;12.27;85.20;101478.78;5095181;28;20240;-75
2023/09/15 07:30:33;;;;;;;8.00;4.37;;;;;;;12.28;85.47;101475.13;5095179;28;20240;-76
2023/09/15 07:33:03;;;;;;;9.27;4.00;;;;;;;12.38;86.08;101470.53;5095079;28;20233;-75
2023/09/15 07:35:31;;;;;;;9.80;4.40;;;;;;;12.45;85.07;101468.91;5094958;28;20254;-75
2023/09/15 07:38:00;;;;;;;7.87;4.23;;;;;;;12.50;85.57;101474.63;5094686;28;20266;-75
2023/09/15 07:40:28;;;;;;;8.97;4.30;;;;;;;12.52;86.58;101464.59;5095638;28;20295;-75
2023/09/15 07:42:57;;;;;;;5.33;3.73;;;;;;;12.61;84.86;101473.56;5094615;28;20748;-75
2023/09/15 07:45:26;;;;;;;7.77;4.20;;;;;;;12.67;86.92;101473.78;5094679;28;20205;-75
2023/09/15 07:47:56;;;;;;;10.07;4.70;;;;;;;12.78;85.11;101469.16;5094653;28;20253;-75
2023/09/15 07:50:24;;;;;;;13.17;5.17;;;;;;;12.87;85.36;101473.59;5094515;28;20697;-75
2023/09/15 07:52:53;;;;;;;6.77;4.13;;;;;;;12.96;83.87;101467.28;5094661;28;20256;-75
2023/09/15 07:55:23;;;;;;;9.37;4.33;;;;;;;12.98;85.94;101463.41;5094667;28;20207;-75
2023/09/15 07:57:51;;;;;;;6.50;4.57;;;;;;;13.10;84.96;101464.88;5094715;28;20193;-75
2023/09/15 08:00:20;;;;;;;11.57;4.80;;;;;;;13.16;85.65;101458.00;5094746;28;20209;-75
2023/09/15 08:02:49;;;;;;;6.87;5.07;;;;;;;13.25;84.50;101465.13;5094405;28;20252;-75
2023/09/15 08:05:19;;;;;;;8.17;4.43;;;;;;;13.35;85.07;101457.78;5094222;28;20574;-75
2023/09/15 08:07:49;;;;;;;7.67;4.40;;;;;;;13.49;84.32;101459.84;5093886;28;20200;-75
2023/09/15 08:10:19;;;;;;;7.70;4.63;;;;;;;13.59;84.20;101449.84;5094344;28;20295;-75
2023/09/15 08:12:52;;;;;;;6.57;4.40;;;;;;;13.76;83.12;101449.88;5093933;28;20728;-75
2023/09/15 08:15:22;;;;;;;9.73;5.13;;;;;;;13.80;84.29;101446.66;5094675;28;20189;-75
2023/09/15 08:17:52;;;;;;;7.00;4.90;;;;;;;13.91;83.90;101458.97;5094380;28;20293;-75
2023/09/15 08:20:26;;;;;;;8.07;4.10;;;;;;;13.91;85.51;101458.97;5094374;28;20250;-63
2023/09/15 08:22:55;;;;;;;15.00;9.33;;;;;;;14.09;83.97;101457.03;5094142;28;20221;-64
2023/09/15 08:25:23;;;;;;;11.00;5.03;;;;;;;14.09;84.08;101457.88;5093844;28;20745;-63
2023/09/15 08:27:52;;;;;;;8.03;4.80;;;;;;;14.20;82.81;101456.69;5093910;28;20224;-72
2023/09/15 08:30:22;;;;;;;6.10;4.20;;;;;;;14.26;82.70;101457.88;5094034;28;20209;-73
2023/09/15 08:32:51;;;;;;;8.13;4.23;;;;;;;14.31;82.25;101451.00;5093765;28;20323;-72
2023/09/15 08:35:20;;;;;;;7.60;3.97;;;;;;;14.43;81.17;101444.28;5093948;28;20204;-72
2023/09/15 08:37:49;;;;;;;6.90;3.67;;;;;;;14.63;78.69;101442.94;5093899;28;20207;-72
2023/09/15 08:40:20;;;;;;;9.60;4.27;;;;;;;14.81;77.83;101453.53;5094049;28;20232;-72
2023/09/15 08:42:49;;;;;;;5.93;3.37;;;;;;;14.93;76.69;101457.53;5094069;28;20234;-72
2023/09/15 08:45:19;;;;;;;7.63;4.20;;;;;;;14.97;78.24;101452.66;5093812;28;20295;-72
2023/09/15 08:47:55;;;;;;;8.73;4.17;;;;;;;14.99;78.49;101458.72;5093486;28;20224;-72
2023/09/15 08:50:27;;;;;;;6.03;3.70;;;;;;;15.06;78.39;101467.81;5094029;28;20188;-73
2023/09/15 08:52:57;;;;;;;8.03;3.60;;;;;;;15.18;76.41;101461.03;5093676;28;20263;-72
2023/09/15 08:55:26;;;;;;;6.13;3.30;;;;;;;15.20;77.96;101465.25;5093621;28;20200;-72
2023/09/15 08:57:55;;;;;;;5.40;3.40;;;;;;;15.30;78.61;101462.38;5093563;28;20204;-72
2023/09/15 09:00:24;;;;;;;5.23;3.50;;;;;;;15.41;77.88;101459.28;5093627;28;20209;-72
2023/09/15 09:02:56;;;;;;;7.63;3.93;;;;;;;15.46;76.13;101448.81;5093462;28;20637;-73
2023/09/15 09:05:30;;;;;;;5.90;3.67;;;;;;;15.57;76.38;101450.31;5093539;28;20643;-73
2023/09/15 09:08:02;;;;;;;5.33;3.60;;;;;;;15.77;73.87;101437.22;5094237;28;20296;-72
2023/09/15 09:10:30;;;;;;;6.77;3.67;;;;;;;15.75;76.54;101442.81;5094002;28;20639;-72
2023/09/15 09:12:59;;;;;;;5.40;3.40;;;;;;;15.78;75.84;101439.75;5094028;28;20745;-71
2023/09/15 09:15:37;;;;;;;8.13;3.10;;;;;;;15.82;75.74;101440.25;5099931;28;20240;-72
2023/09/15 09:18:18;;;;;;;5.80;3.70;;;;;;;15.91;76.27;101439.19;5100202;28;20189;-71
2023/09/15 09:20:55;;;;;;;6.43;3.43;;;;;;;15.99;77.12;101439.94;5100232;28;20188;-72
2023/09/15 09:23:26;;;;;;;6.07;3.70;;;;;;;16.10;76.12;101441.41;5100376;28;20282;-72
2023/09/15 09:25:55;;;;;;;9.47;3.90;;;;;;;16.28;75.88;101433.84;5100311;28;20238;-72
2023/09/15 09:28:23;;;;;;;5.40;3.30;;;;;;;16.32;76.78;101435.19;5099702;28;20808;-73
2023/09/15 09:30:56;;;;;;;5.73;3.30;;;;;;;16.49;73.66;101427.78;5100107;28;20193;-72
2023/09/15 09:33:24;;;;;;;6.77;3.70;;;;;;;16.60;73.24;101424.66;5099671;28;20733;-71
2023/09/15 09:35:53;;;;;;;6.30;3.30;;;;;;;16.75;73.75;101411.19;5100218;28;20210;-72
2023/09/15 09:38:26;;;;;;;6.83;3.30;;;;;;;16.80;74.49;101414.16;5100036;28;20284;-72
2023/09/15 09:40:56;;;;;;;6.83;3.70;;;;;;;16.99;72.10;101411.75;5099645;28;20630;-73
2023/09/15 09:43:25;;;;;;;5.73;3.47;;;;;;;17.03;72.45;101412.22;5099539;28;20316;-72
2023/09/15 09:45:55;;;;;;;7.00;3.50;;;;;;;17.13;71.89;101413.63;5100026;28;20304;-72
2023/09/15 09:48:26;;;;;;;10.30;3.27;;;;;;;17.16;72.39;101415.09;5099842;28;20236;-73
2023/09/15 09:50:55;;;;;;;5.77;3.60;;;;;;;17.32;71.37;101409.53;5099605;28;20748;-73
2023/09/15 09:53:32;;;;;;;4.13;3.17;;;;;;;17.39;72.58;101407.75;5099805;28;20259;-73
2023/09/15 09:56:01;;;;;;;6.20;3.70;;;;;;;17.42;72.80;101410.06;5099512;28;20193;-73
2023/09/15 09:58:29;;;;;;;6.03;3.53;;;;;;;17.54;73.00;101405.84;5099584;28;20300;-73
2023/09/15 10:00:58;;;;;;;6.53;3.77;;;;;;;17.70;70.24;101394.00;5099787;28;20208;-73
2023/09/15 10:03:26;;;;;;;6.13;3.50;;;;;;;17.82;70.09;101391.63;5099941;28;20229;-70
2023/09/15 10:05:55;;;;;;;7.80;4.23;;;;;;;18.00;68.46;101389.31;5100312;28;20235;-72
2023/09/15 10:08:26;;;;;;;7.93;3.73;;;;;;;18.24;67.50;101391.63;5100231;28;20235;-72
2023/09/15 10:10:58;;;;;;;5.67;3.47;;;;;;;18.31;67.92;101387.13;5100065;28;20278;-72
2023/09/15 10:13:27;;;;;;;4.27;3.40;;;;;;;18.35;68.73;101383.00;5099606;28;20752;-72
2023/09/15 10:15:56;;;;;;;6.73;3.73;;;;;;;18.44;66.70;101395.34;5099707;28;20204;-72
2023/09/15 10:18:25;;;;;;;7.37;3.63;;;;;;;18.54;66.31;101382.34;5099476;28;20207;-72
2023/09/15 10:20:58;;;;;;;8.73;6.57;;;;;;;18.58;67.39;101378.19;5099609;28;20220;-63
2023/09/15 10:23:26;;;;;;;6.00;3.90;;;;;;;18.69;66.55;101374.94;5099582;28;20228;-74
2023/09/15 10:25:56;;;;;;;6.07;3.40;;;;;;;18.76;67.13;101379.56;5095857;28;20292;-74
2023/09/15 10:28:25;;;;;;;6.40;3.67;;;;;;;18.83;65.48;101380.47;5096226;28;20312;-74
2023/09/15 10:31:09;;;;;;;5.27;3.50;;;;;;;18.96;65.79;101369.69;5096204;28;20184;-74
2023/09/15 10:33:42;;;;;;;4.37;3.77;;;;;;;19.04;65.63;101367.63;5096123;28;20232;-74
2023/09/15 10:36:15;;;;;;;4.87;3.30;;;;;;;19.11;66.04;101371.22;5095751;28;20216;-74
2023/09/15 10:38:45;;;;;;;5.30;3.60;;;;;;;19.17;66.10;101375.88;5096172;28;20185;-74
2023/09/15 10:41:27;;;;;;;6.50;4.20;;;;;;;19.31;63.51;101374.06;5096137;28;20206;-74
2023/09/15 10:43:56;;;;;;;6.40;3.43;;;;;;;19.49;63.83;101373.50;5095853;28;20315;-74
2023/09/15 10:46:36;;;;;;;4.63;3.50;;;;;;;19.55;62.66;101376.28;5096043;28;20204;-74
2023/09/15 10:49:15;;;;;;;5.80;3.70;;;;;;;19.66;60.01;101367.53;5096023;28;20220;-73
2023/09/15 10:51:54;;;;;;;5.67;3.60;;;;;;;19.81;62.70;101369.25;5096303;28;20601;-74
2023/09/15 10:54:24;;;;;;;5.40;3.70;;;;;;;19.91;63.17;101358.81;5096862;28;20228;-74
2023/09/15 10:56:56;;;;;;;5.37;3.67;;;;;;;20.05;60.19;101363.22;5096040;28;20237;-75
2023/09/15 10:59:26;;;;;;;4.57;3.43;;;;;;;20.11;59.15;101354.22;5095438;28;20209;-74
2023/09/15 11:01:55;;;;;;;5.57;3.23;;;;;;;20.23;60.18;101355.31;5095796;28;20666;-74
2023/09/15 11:04:25;;;;;;;5.77;4.10;;;;;;;20.31;60.66;101355.09;5095570;28;20228;-66
2023/09/15 11:06:54;;;;;;;6.20;4.63;;;;;;;20.39;60.17;101354.91;5095323;28;20582;-65
2023/09/15 11:09:25;;;;;;;5.03;3.63;;;;;;;20.43;58.73;101358.88;5095483;28;20315;-74
2023/09/15 11:11:54;;;;;;;6.07;3.80;;;;;;;20.50;59.82;101348.00;5095910;28;20205;-75
2023/09/15 11:14:24;;;;;;;5.20;3.63;;;;;;;20.61;58.06;101350.94;5095487;28;20228;-75
2023/09/15 11:16:56;;;;;;;5.63;3.80;;;;;;;20.67;58.58;101343.78;5095545;28;20201;-75
2023/09/15 11:19:30;;;;;;;5.97;3.77;;;;;;;20.77;58.79;101346.91;5095467;28;20189;-75
2023/09/15 11:22:02;;;;;;;5.87;3.40;;;;;;;20.89;58.36;101341.66;5095145;28;20280;-75
2023/09/15 11:24:33;;;;;;;4.97;3.70;;;;;;;21.00;56.06;101343.72;5095262;28;20229;-75
2023/09/15 11:27:03;;;;;;;5.83;3.60;;;;;;;21.08;57.37;101346.22;5095328;28;20229;-75
2023/09/15 11:29:32;;;;;;;3.67;3.20;;;;;;;21.17;58.18;101340.34;5095036;28;20597;-75
2023/09/15 11:32:02;;;;;;;4.87;3.47;;;;;;;21.28;58.44;101336.13;5095110;28;20300;-75
2023/09/15 11:34:32;;;;;;;4.00;3.37;;;;;;;21.41;57.69;101333.31;5094910;28;20260;-75
2023/09/15 11:37:02;;;;;;;6.10;3.50;;;;;;;21.44;56.95;101335.59;5094763;28;20193;-75